Time;durP1;ratioP1;P1;durP2;ratioP2;P2;SDS_P1;SDS_P2;PMS_P1;PMS_P2;Temp;Humidity;BMP_temperature;BMP_pressure;BME280_temperature;BME280_humidity;BME280_pressure;Samples;Min_cycle;Max_cycle;Signal;HPM_P1;HPM_P2
2022/07/02 00:01:36;;;;;;;2.78;1.30;;;;;;;14.39;69.31;99219.25;4106056;28;20606;-56
2022/07/02 00:03:39;;;;;;;0.82;0.80;;;;;;;14.41;69.01;99221.72;4106023;28;20310;-56
2022/07/02 00:05:47;;;;;;;2.47;1.00;;;;;;;14.41;68.92;99225.31;4094198;28;20223;-55
2022/07/02 00:07:50;;;;;;;1.77;1.23;;;;;;;14.40;69.06;99220.06;4107482;28;20227;-55
2022/07/02 00:09:54;;;;;;;2.63;1.30;;;;;;;14.37;69.07;99221.41;4099746;28;20316;-56
2022/07/02 00:11:59;;;;;;;1.75;1.38;;;;;;;14.35;69.28;99218.06;4093961;28;20290;-55
2022/07/02 00:14:01;;;;;;;1.42;1.33;;;;;;;14.35;69.03;99215.31;4091194;28;20302;-55
2022/07/02 00:16:03;;;;;;;1.42;1.10;;;;;;;14.38;68.96;99212.03;4106508;28;20294;-55
2022/07/02 00:18:05;;;;;;;1.00;1.00;;;;;;;14.36;68.84;99213.41;4105687;28;20213;-56
2022/07/02 00:20:07;;;;;;;1.45;1.02;;;;;;;14.32;69.20;99213.09;4106362;28;20269;-55
2022/07/02 00:22:10;;;;;;;1.70;1.08;;;;;;;14.26;69.54;99219.63;4106820;28;20297;-56
2022/07/02 00:24:12;;;;;;;5.00;1.33;;;;;;;14.21;69.91;99211.31;4105972;28;20305;-55
2022/07/02 00:26:19;;;;;;;3.03;1.00;;;;;;;14.08;70.12;99216.31;4106857;28;20240;-56
2022/07/02 00:28:23;;;;;;;1.90;1.60;;;;;;;14.09;70.14;99218.81;4085464;28;20827;-55
2022/07/02 00:30:26;;;;;;;1.30;1.20;;;;;;;14.07;70.13;99218.25;4105170;28;20254;-56
2022/07/02 00:32:32;;;;;;;1.10;0.73;;;;;;;14.04;70.02;99215.97;4105780;28;20712;-55
2022/07/02 00:34:37;;;;;;;2.10;1.23;;;;;;;14.02;70.22;99209.91;4103611;28;20298;-56
2022/07/02 00:36:39;;;;;;;2.03;1.92;;;;;;;14.03;69.72;99214.31;4105018;28;20258;-55
2022/07/02 00:38:41;;;;;;;2.97;1.63;;;;;;;14.02;69.78;99212.66;4107236;28;20227;-56
2022/07/02 00:40:44;;;;;;;1.20;1.00;;;;;;;14.01;69.77;99211.00;4107223;28;20230;-56
2022/07/02 00:42:46;;;;;;;1.30;1.00;;;;;;;14.02;69.97;99218.16;4095005;28;20611;-55
2022/07/02 00:44:48;;;;;;;1.58;1.48;;;;;;;13.98;70.20;99221.69;4105975;28;20313;-55
2022/07/02 00:46:52;;;;;;;1.40;1.00;;;;;;;13.96;70.23;99219.19;4103261;28;20238;-55
2022/07/02 00:48:54;;;;;;;1.33;1.00;;;;;;;13.92;70.18;99218.06;4092979;28;20254;-56
2022/07/02 00:50:55;;;;;;;5.18;1.20;;;;;;;13.88;70.16;99219.63;4106506;28;20301;-56
2022/07/02 00:52:57;;;;;;;3.97;1.13;;;;;;;13.84;70.29;99218.47;4103013;28;21680;-56
2022/07/02 00:54:59;;;;;;;2.33;1.00;;;;;;;13.84;70.26;99221.22;4105917;28;20238;-55
2022/07/02 00:57:02;;;;;;;4.53;1.20;;;;;;;13.83;70.67;99216.81;4105334;28;20227;-55
2022/07/02 00:59:04;;;;;;;1.70;1.20;;;;;;;13.81;70.38;99220.88;4102604;28;20352;-56
2022/07/02 01:01:05;;;;;;;1.35;1.00;;;;;;;13.79;70.70;99212.91;4101761;28;20207;-55
2022/07/02 01:03:08;;;;;;;5.22;1.20;;;;;;;13.72;70.92;99223.25;4104096;28;20739;-55
2022/07/02 01:05:10;;;;;;;1.50;1.40;;;;;;;13.70;70.95;99214.41;4084017;28;20215;-56
2022/07/02 01:07:14;;;;;;;2.05;1.25;;;;;;;13.67;70.93;99209.44;4102536;28;20207;-56
2022/07/02 01:11:37;;;;;;;1.77;1.13;;;;;;;13.67;70.75;99214.94;4104019;28;20325;-55
2022/07/02 01:13:39;;;;;;;2.25;1.60;;;;;;;13.68;71.00;99211.09;4106278;28;20309;-56
2022/07/02 01:15:41;;;;;;;2.30;1.25;;;;;;;13.68;70.84;99205.59;4090733;28;20212;-56
2022/07/02 01:17:43;;;;;;;4.70;1.88;;;;;;;13.68;70.76;99211.09;4105476;28;20371;-56
2022/07/02 01:19:44;;;;;;;0.98;0.90;;;;;;;13.66;70.74;99207.78;4105425;28;20231;-56
2022/07/02 01:22:11;;;;;;;1.35;0.90;;;;;;;13.60;71.08;99208.78;4105605;28;20310;-55
2022/07/02 01:24:23;;;;;;;4.13;1.00;;;;;;;13.55;71.26;99205.94;4106114;28;20274;-56
2022/07/02 01:26:24;;;;;;;1.15;1.05;;;;;;;13.53;71.23;99207.28;4104338;28;20224;-56
2022/07/02 01:28:26;;;;;;;1.23;1.13;;;;;;;13.53;71.10;99208.13;4107564;28;20294;-55
2022/07/02 01:30:28;;;;;;;1.33;1.23;;;;;;;13.52;70.74;99209.22;4106124;28;20686;-55
2022/07/02 01:32:29;;;;;;;1.40;1.30;;;;;;;13.48;71.07;99207.19;4105472;28;20659;-55
2022/07/02 01:34:42;;;;;;;1.33;1.05;;;;;;;13.46;71.16;99214.88;4088835;28;20724;-55
2022/07/02 01:36:44;;;;;;;3.13;1.15;;;;;;;13.40;71.38;99213.97;4104725;28;20593;-55
2022/07/02 01:38:45;;;;;;;1.73;1.10;;;;;;;13.34;71.26;99212.22;4106018;28;20321;-55
2022/07/02 01:40:47;;;;;;;4.28;1.13;;;;;;;13.31;71.23;99218.19;4110981;28;20302;-55
2022/07/02 01:42:49;;;;;;;1.17;1.08;;;;;;;13.29;71.67;99220.38;4108752;28;20206;-56
2022/07/02 01:44:51;;;;;;;1.25;1.10;;;;;;;13.25;72.10;99216.44;4108845;28;20238;-55
2022/07/02 01:46:53;;;;;;;2.25;1.42;;;;;;;13.23;72.01;99221.38;4108230;28;20361;-55
2022/07/02 01:48:54;;;;;;;4.93;1.70;;;;;;;13.19;72.39;99213.88;4106802;28;20799;-55
2022/07/02 01:50:56;;;;;;;1.50;1.38;;;;;;;13.18;72.44;99218.53;4108813;28;20230;-55
2022/07/02 01:52:57;;;;;;;2.05;1.42;;;;;;;13.13;72.44;99223.13;4105575;28;20676;-55
2022/07/02 01:54:59;;;;;;;1.88;1.77;;;;;;;13.09;72.34;99213.72;4097331;28;20651;-55
2022/07/02 01:57:01;;;;;;;1.30;1.20;;;;;;;13.07;72.22;99219.47;4107866;28;20294;-56
2022/07/02 01:59:03;;;;;;;3.17;1.17;;;;;;;13.05;72.38;99216.09;4106992;28;20330;-56
2022/07/02 02:01:04;;;;;;;2.40;1.25;;;;;;;13.05;72.47;99218.03;4107274;28;20250;-56
2022/07/02 02:03:06;;;;;;;2.45;1.75;;;;;;;13.01;72.63;99209.47;4109217;28;20217;-55
2022/07/02 02:05:07;;;;;;;2.40;1.25;;;;;;;13.03;72.64;99209.22;4110986;28;20232;-56
2022/07/02 02:07:09;;;;;;;1.50;1.40;;;;;;;13.00;72.05;99207.81;4110151;28;20787;-56
2022/07/02 02:09:11;;;;;;;2.42;1.27;;;;;;;12.99;71.88;99206.13;4107469;28;20315;-55
2022/07/02 02:11:12;;;;;;;1.60;1.35;;;;;;;12.95;72.40;99215.94;4108790;28;20298;-55
2022/07/02 02:13:14;;;;;;;2.92;1.63;;;;;;;12.90;72.70;99213.06;4107585;28;20211;-56
2022/07/02 02:15:15;;;;;;;1.73;1.63;;;;;;;12.90;72.15;99213.06;4106894;28;20219;-55
2022/07/02 02:17:17;;;;;;;1.42;1.20;;;;;;;12.88;72.36;99209.75;4107427;28;20294;-56
2022/07/02 02:19:18;;;;;;;1.73;1.20;;;;;;;12.89;71.92;99205.91;4097606;28;20313;-55
2022/07/02 02:21:21;;;;;;;1.40;1.20;;;;;;;12.91;72.11;99209.25;4113906;28;20306;-56
2022/07/02 02:23:23;;;;;;;1.65;1.35;;;;;;;12.93;72.02;99218.09;4108239;28;20213;-56
2022/07/02 02:25:24;;;;;;;2.33;1.02;;;;;;;12.95;71.86;99210.44;4105813;28;20703;-56
2022/07/02 02:27:26;;;;;;;1.50;1.02;;;;;;;12.97;71.68;99211.03;4107666;28;20300;-55
2022/07/02 02:29:28;;;;;;;1.30;1.20;;;;;;;12.97;71.86;99208.28;4107773;28;20254;-55
2022/07/02 02:31:30;;;;;;;1.85;1.15;;;;;;;12.92;71.95;99210.94;4105952;28;20369;-56
2022/07/02 02:33:31;;;;;;;1.00;1.00;;;;;;;12.87;71.94;99213.59;4106718;28;20703;-56
2022/07/02 02:35:33;;;;;;;0.88;0.88;;;;;;;12.77;72.31;99207.88;4107097;28;20253;-56
2022/07/02 02:37:34;;;;;;;1.60;1.00;;;;;;;12.72;72.89;99210.56;4106233;28;20306;-56
2022/07/02 02:39:36;;;;;;;1.20;1.10;;;;;;;12.67;72.94;99212.38;4108092;28;20624;-56
2022/07/02 02:41:37;;;;;;;6.15;1.33;;;;;;;12.58;72.95;99206.44;4108795;28;20207;-57
2022/07/02 02:43:39;;;;;;;3.28;1.00;;;;;;;12.54;73.33;99213.50;4108634;28;20215;-56
2022/07/02 02:48:22;;;;;;;1.73;1.42;;;;;;;12.29;74.09;99218.50;3165031;26;20310;-89
2022/07/02 02:50:51;;;;;;;1.48;1.10;;;;;;;12.33;74.32;99214.19;4107215;28;20215;-86
2022/07/02 02:56:17;;;;;;;1.25;0.95;;;;;;;12.38;73.63;99218.94;4115599;28;20221;-87
2022/07/02 03:01:37;;;;;;;1.55;1.10;;;;;;;12.45;73.06;99225.13;4109843;28;20202;-87
2022/07/02 03:04:18;;;;;;;2.03;1.20;;;;;;;12.47;72.95;99223.81;4098847;28;20203;-86
2022/07/02 03:06:39;;;;;;;1.45;1.30;;;;;;;12.48;72.83;99225.47;4092091;28;20254;-86
2022/07/02 03:08:49;;;;;;;1.33;0.90;;;;;;;12.46;72.74;99213.91;4104276;28;20579;-86
2022/07/02 03:14:14;;;;;;;3.63;1.17;;;;;;;12.41;72.37;99227.53;4091732;28;20210;-86
2022/07/02 03:16:32;;;;;;;1.40;1.25;;;;;;;12.42;72.89;99225.59;4092289;28;20250;-88
2022/07/02 03:19:06;;;;;;;1.63;1.17;;;;;;;12.43;72.68;99230.84;4107290;28;20305;-89
2022/07/02 03:21:24;;;;;;;1.45;0.98;;;;;;;12.43;72.12;99239.09;4106056;28;20326;-89
2022/07/02 03:23:28;;;;;;;2.58;0.95;;;;;;;12.41;72.50;99246.75;4091858;28;20764;-86
2022/07/02 03:25:38;;;;;;;1.40;1.30;;;;;;;12.37;72.71;99233.75;4097072;28;20251;-86
2022/07/02 03:27:42;;;;;;;1.63;1.40;;;;;;;12.34;72.53;99242.47;4125645;28;20237;-87
2022/07/02 03:30:08;;;;;;;1.67;1.13;;;;;;;12.33;72.49;99249.88;4085908;28;20245;-87
2022/07/02 03:32:29;;;;;;;1.00;1.00;;;;;;;12.29;72.66;99247.84;4096252;28;20210;-86
2022/07/02 03:34:34;;;;;;;1.50;1.40;;;;;;;12.26;72.93;99249.19;4115976;28;20202;-86
2022/07/02 03:36:36;;;;;;;1.42;1.30;;;;;;;12.24;72.54;99243.09;4090303;28;20330;-86
2022/07/02 03:38:57;;;;;;;2.83;1.30;;;;;;;12.24;72.84;99248.56;4085969;28;20215;-87
2022/07/02 03:40:59;;;;;;;2.78;1.10;;;;;;;12.25;72.82;99252.97;4108708;28;20238;-86
2022/07/02 03:43:00;;;;;;;1.38;1.27;;;;;;;12.27;72.74;99253.59;4104245;28;20210;-87
2022/07/02 03:45:06;;;;;;;2.20;1.25;;;;;;;12.25;72.64;99252.97;4089402;28;20231;-86
2022/07/02 03:47:16;;;;;;;1.60;1.50;;;;;;;12.25;72.59;99252.97;4095104;28;20765;-87
2022/07/02 03:49:21;;;;;;;1.30;1.20;;;;;;;12.22;72.51;99258.97;4088644;28;20210;-87
2022/07/02 03:51:22;;;;;;;1.48;0.93;;;;;;;12.24;72.72;99262.28;4102840;28;20222;-87
2022/07/02 03:53:24;;;;;;;1.60;1.27;;;;;;;12.25;72.34;99255.72;4106438;28;20212;-86
2022/07/02 03:55:26;;;;;;;1.50;1.40;;;;;;;12.22;72.34;99256.22;4093213;28;20255;-86
2022/07/02 03:57:31;;;;;;;1.00;0.90;;;;;;;12.16;73.02;99259.94;4103807;28;20219;-86
2022/07/02 03:59:52;;;;;;;1.42;1.33;;;;;;;12.10;73.27;99260.09;4095917;28;20267;-87
2022/07/02 04:01:53;;;;;;;2.00;1.25;;;;;;;12.05;73.49;99252.56;4089878;28;20215;-87
2022/07/02 04:04:19;;;;;;;3.80;1.20;;;;;;;12.00;73.83;99255.22;4123983;28;20744;-87
2022/07/02 04:06:37;;;;;;;1.30;1.20;;;;;;;11.97;74.20;99249.38;4109618;28;20693;-87
2022/07/02 04:08:44;;;;;;;3.42;1.15;;;;;;;11.96;74.07;99251.25;4120169;28;20202;-88
2022/07/02 04:11:27;;;;;;;1.70;1.60;;;;;;;11.93;74.56;99249.03;4104878;28;20672;-88
2022/07/02 04:13:31;;;;;;;1.75;1.40;;;;;;;11.99;74.46;99248.06;4105606;28;20211;-87
2022/07/02 04:15:52;;;;;;;1.30;1.20;;;;;;;11.95;74.49;99252.34;4095394;28;20227;-88
2022/07/02 04:18:00;;;;;;;1.85;1.25;;;;;;;11.96;74.05;99244.97;4108343;28;20302;-88
2022/07/02 04:20:12;;;;;;;4.32;1.75;;;;;;;11.98;73.89;99245.56;4093014;28;20219;-87
2022/07/02 04:22:17;;;;;;;1.45;1.20;;;;;;;11.99;74.08;99245.31;4095237;28;20211;-88
2022/07/02 04:25:07;;;;;;;1.00;1.00;;;;;;;12.03;73.97;99246.47;4121925;28;20224;-88
2022/07/02 04:27:36;;;;;;;2.58;1.40;;;;;;;12.10;74.09;99244.44;4111647;28;20209;-88
2022/07/02 04:29:48;;;;;;;1.80;1.70;;;;;;;12.14;73.65;99240.16;4124233;28;20258;-88
2022/07/02 04:31:58;;;;;;;3.38;1.35;;;;;;;12.15;74.15;99247.28;4106211;28;20229;-88
2022/07/02 04:34:08;;;;;;;1.33;1.10;;;;;;;12.16;74.13;99237.97;4103034;28;20844;-87
2022/07/02 04:36:12;;;;;;;1.40;1.30;;;;;;;12.15;74.00;99241.81;4104053;28;20246;-89
2022/07/02 04:38:24;;;;;;;4.32;1.20;;;;;;;12.14;74.27;99234.66;4105479;28;20203;-88
2022/07/02 04:40:29;;;;;;;2.40;1.30;;;;;;;12.15;74.04;99244.56;4104095;28;20217;-88
2022/07/02 04:42:51;;;;;;;1.83;1.20;;;;;;;12.17;74.41;99245.13;4085399;28;20969;-88
2022/07/02 04:44:56;;;;;;;1.50;1.02;;;;;;;12.20;74.31;99250.16;4104507;28;20215;-87
2022/07/02 04:47:00;;;;;;;1.63;1.30;;;;;;;12.24;74.19;99245.00;4101442;28;20227;-87
2022/07/02 04:49:02;;;;;;;1.25;1.10;;;;;;;12.28;74.48;99240.69;4089920;28;20237;-87
2022/07/02 04:51:13;;;;;;;2.40;1.88;;;;;;;12.43;74.08;99244.59;4097044;28;20215;-88
2022/07/02 04:53:23;;;;;;;2.25;1.30;;;;;;;12.38;73.91;99240.91;4104662;28;20210;-87
2022/07/02 04:55:48;;;;;;;1.20;1.10;;;;;;;12.38;74.00;99241.72;4101792;28;20246;-86
2022/07/02 04:57:52;;;;;;;1.77;1.20;;;;;;;12.43;73.71;99238.28;4105314;28;20270;-87
2022/07/02 04:59:54;;;;;;;0.95;0.95;;;;;;;12.42;74.25;99237.44;4092953;28;20250;-86
2022/07/02 05:02:03;;;;;;;2.15;1.60;;;;;;;12.51;74.38;99241.44;4087765;28;20238;-87
2022/07/02 05:04:10;;;;;;;1.33;1.20;;;;;;;12.50;73.98;99239.78;4108281;28;20237;-88
2022/07/02 05:06:19;;;;;;;1.13;1.08;;;;;;;12.58;73.55;99236.63;4086446;28;20733;-88
2022/07/02 05:09:03;;;;;;;1.35;1.25;;;;;;;12.60;74.06;99239.16;4112541;28;20751;-88
2022/07/02 05:11:18;;;;;;;;;;;;;;;;;;;;;
2022/07/02 05:14:14;;;;;;;1.35;1.23;;;;;;;12.78;73.49;99239.75;4128924;28;20241;-89
2022/07/02 05:16:34;;;;;;;1.05;0.95;;;;;;;12.80;73.26;99240.38;4089630;28;20226;-88
2022/07/02 05:18:39;;;;;;;1.52;1.13;;;;;;;12.89;73.20;99238.88;4091456;29;20212;-87
2022/07/02 05:20:50;;;;;;;1.77;1.10;;;;;;;12.94;72.96;99240.88;4104962;28;20206;-88
2022/07/02 05:22:56;;;;;;;2.10;1.30;;;;;;;13.04;73.16;99241.09;4113137;28;20226;-88
2022/07/02 05:25:04;;;;;;;1.00;1.00;;;;;;;13.13;73.04;99232.22;4090946;28;20222;-88
2022/07/02 05:27:09;;;;;;;2.63;1.30;;;;;;;13.27;73.02;99240.94;4098081;28;20227;-89
2022/07/02 05:29:33;;;;;;;1.77;1.63;;;;;;;13.35;72.98;99232.28;4052477;29;20235;-89
2022/07/02 05:31:55;;;;;;;1.48;1.38;;;;;;;13.30;73.23;99234.97;4076086;29;20307;-88
2022/07/02 05:34:10;;;;;;;1.50;1.02;;;;;;;13.45;73.10;99241.56;4045490;29;20591;-87
2022/07/02 05:36:23;;;;;;;1.00;1.00;;;;;;;13.50;73.26;99241.59;4045155;29;20925;-87
2022/07/02 05:38:44;;;;;;;0.90;0.90;;;;;;;13.64;73.06;99237.41;4052924;29;20826;-88
2022/07/02 05:40:48;;;;;;;2.33;1.00;;;;;;;13.78;73.26;99238.72;4058624;29;20217;-88
2022/07/02 05:43:00;;;;;;;1.40;1.30;;;;;;;13.96;73.97;99238.44;4060649;29;20224;-87
2022/07/02 05:45:36;;;;;;;1.73;1.27;;;;;;;14.18;73.19;99242.06;4051084;29;20716;-87
2022/07/02 05:48:03;;;;;;;1.08;1.08;;;;;;;14.28;72.18;99244.97;4066293;29;20537;-89
2022/07/02 05:50:10;;;;;;;2.00;1.10;;;;;;;14.43;72.49;99247.91;4060151;29;20260;-87
2022/07/02 05:53:15;;;;;;;;;;;;;;;;;;;;;
2022/07/02 05:55:35;;;;;;;2.05;0.95;;;;;;;14.84;70.64;99243.72;4108806;28;20237;-88
2022/07/02 05:58:19;;;;;;;1.00;0.90;;;;;;;14.98;70.37;99251.31;4051279;29;20205;-87
2022/07/02 06:00:28;;;;;;;1.13;0.85;;;;;;;14.97;70.73;99255.13;4064757;29;20255;-88
2022/07/02 06:08:32;;;;;;;0.95;0.90;;;;;;;15.41;69.95;99253.94;4023487;29;20243;-87
2022/07/02 06:10:54;;;;;;;3.33;1.20;;;;;;;15.36;70.54;99248.38;4010938;29;20219;-87
2022/07/02 06:13:18;;;;;;;3.65;0.80;;;;;;;15.48;69.39;99246.28;4011588;29;20204;-86
2022/07/02 06:15:43;;;;;;;1.13;0.98;;;;;;;15.63;69.01;99253.84;4035567;29;20235;-88
2022/07/02 06:18:05;;;;;;;1.58;0.80;;;;;;;15.78;68.39;99254.78;4067447;29;20394;-87
2022/07/02 06:20:36;;;;;;;1.25;1.15;;;;;;;16.06;68.33;99259.94;4064304;29;20212;-88
2022/07/02 06:23:01;;;;;;;1.52;1.30;;;;;;;16.23;67.42;99260.56;4047753;29;20213;-87
2022/07/02 06:25:06;;;;;;;1.67;0.85;;;;;;;16.49;67.33;99264.34;4056039;29;20335;-86
2022/07/02 06:27:08;;;;;;;1.33;0.90;;;;;;;16.63;66.58;99259.97;4055679;29;20234;-85
2022/07/02 06:29:15;;;;;;;2.13;0.65;;;;;;;16.84;66.33;99256.97;4042759;29;20205;-84
2022/07/02 06:31:27;;;;;;;1.80;0.85;;;;;;;16.97;66.11;99250.13;4073410;29;20208;-86
2022/07/02 06:33:57;;;;;;;1.52;1.00;;;;;;;17.05;66.14;99254.00;4073239;29;20365;-84
2022/07/02 06:36:17;;;;;;;3.83;0.80;;;;;;;17.05;66.19;99255.94;4066138;29;20813;-85
2022/07/02 06:38:18;;;;;;;0.90;0.90;;;;;;;17.27;66.63;99259.28;4073522;29;20341;-84
2022/07/02 06:40:28;;;;;;;1.13;0.77;;;;;;;17.49;65.56;99248.81;4051425;29;20205;-86
2022/07/02 06:42:30;;;;;;;4.80;0.95;;;;;;;17.62;65.16;99249.09;4046686;29;20338;-86
2022/07/02 06:44:37;;;;;;;1.77;0.70;;;;;;;17.80;65.10;99245.75;4057629;29;20217;-88
2022/07/02 06:46:43;;;;;;;1.23;0.75;;;;;;;17.91;64.59;99246.59;4116752;28;20225;-86
2022/07/02 06:48:51;;;;;;;1.58;0.73;;;;;;;17.95;64.36;99247.66;4099108;28;20203;-87
2022/07/02 06:50:55;;;;;;;1.52;0.63;;;;;;;18.13;63.91;99249.84;4098645;28;20563;-88
2022/07/02 06:53:42;;;;;;;1.98;0.70;;;;;;;18.30;63.24;99244.81;4118261;28;20210;-84
2022/07/02 06:55:45;;;;;;;0.50;0.50;;;;;;;18.50;62.50;99250.31;4119724;28;20229;-84
2022/07/02 06:57:50;;;;;;;0.80;0.70;;;;;;;18.23;62.73;99244.28;4102795;28;20295;-86
2022/07/02 06:59:55;;;;;;;1.20;0.80;;;;;;;18.20;62.36;99244.84;4125347;28;20269;-87
2022/07/02 07:02:24;;;;;;;0.98;0.60;;;;;;;18.17;62.60;99228.78;4106406;28;20254;-86
2022/07/02 07:04:29;;;;;;;1.90;0.80;;;;;;;17.92;63.28;99231.63;4121401;28;20206;-87
2022/07/02 07:06:46;;;;;;;;;;;;;;;;;;;;;
2022/07/02 07:08:59;;;;;;;0.60;0.60;;;;;;;18.02;63.39;99229.66;4126204;28;20206;-85
2022/07/02 07:11:03;;;;;;;1.95;0.88;;;;;;;18.02;62.88;99237.13;4122939;28;20206;-85
2022/07/02 07:13:10;;;;;;;2.05;0.98;;;;;;;18.26;62.70;99232.66;4104851;28;20238;-88
2022/07/02 07:15:17;;;;;;;1.02;0.90;;;;;;;18.46;62.28;99232.59;4089790;28;20611;-87
2022/07/02 07:17:25;;;;;;;0.60;0.60;;;;;;;18.68;62.37;99231.13;4108412;28;20670;-86
2022/07/02 07:19:27;;;;;;;1.13;0.68;;;;;;;18.82;61.00;99231.31;4091090;28;20631;-86
2022/07/02 07:21:53;;;;;;;1.25;0.70;;;;;;;19.21;61.11;99229.44;4097930;28;20202;-85
2022/07/02 07:23:55;;;;;;;1.67;0.60;;;;;;;19.52;60.38;99223.34;4109781;28;20293;-84
2022/07/02 07:25:57;;;;;;;1.20;0.70;;;;;;;19.81;59.30;99218.66;4107978;28;20250;-85
2022/07/02 07:28:39;;;;;;;2.05;0.50;;;;;;;20.20;58.54;99226.88;4120199;28;20226;-85
2022/07/02 07:30:43;;;;;;;1.17;0.85;;;;;;;20.39;54.86;99234.16;4120228;28;20234;-86
2022/07/02 07:36:19;;;;;;;0.95;0.60;;;;;;;20.85;53.59;99234.41;4105510;28;20233;-84
2022/07/02 07:38:59;;;;;;;0.82;0.50;;;;;;;20.98;55.55;99233.72;4095962;28;20740;-84
2022/07/02 07:41:37;;;;;;;1.00;0.60;;;;;;;21.16;53.34;99236.50;4112303;28;20217;-85
2022/07/02 07:44:16;;;;;;;1.58;0.70;;;;;;;21.40;52.73;99225.25;4107656;28;20305;-87
2022/07/02 07:46:42;;;;;;;2.85;0.60;;;;;;;21.47;52.13;99225.72;4104836;28;20330;-85
2022/07/02 07:49:06;;;;;;;1.23;0.90;;;;;;;21.54;50.65;99221.41;4046118;29;20277;-85
2022/07/02 07:51:09;;;;;;;0.73;0.50;;;;;;;21.52;50.21;99215.28;4080968;28;20253;-85
2022/07/02 07:53:28;;;;;;;1.58;0.52;;;;;;;21.38;49.92;99210.81;4060420;29;20893;-87
2022/07/02 07:55:29;;;;;;;0.60;0.52;;;;;;;21.46;50.43;99207.34;4059026;29;20267;-85
2022/07/02 07:57:31;;;;;;;0.40;0.40;;;;;;;21.65;49.30;99210.94;4046068;29;20632;-84
2022/07/02 07:59:55;;;;;;;0.95;0.60;;;;;;;21.80;52.00;99208.75;4061755;29;20247;-86
2022/07/02 08:01:57;;;;;;;0.30;0.30;;;;;;;21.80;47.82;99214.31;4031133;29;20703;-87
2022/07/02 08:04:11;;;;;;;2.25;0.80;;;;;;;21.89;48.64;99211.63;4060640;29;20395;-84
2022/07/02 08:06:13;;;;;;;0.60;0.60;;;;;;;21.82;48.40;99211.19;4025593;29;20229;-85
2022/07/02 08:08:17;;;;;;;0.73;0.70;;;;;;;22.00;48.82;99201.94;4043053;29;20277;-86
2022/07/02 08:10:19;;;;;;;0.82;0.60;;;;;;;22.02;48.34;99205.25;4029401;29;20205;-87
2022/07/02 08:12:21;;;;;;;0.82;0.50;;;;;;;21.92;47.11;99205.44;4060114;29;20211;-86
2022/07/02 08:14:22;;;;;;;1.17;0.50;;;;;;;22.10;48.07;99196.19;4061643;29;20676;-85
2022/07/02 08:16:24;;;;;;;1.73;0.60;;;;;;;22.39;47.05;99196.72;4044121;29;20617;-86
2022/07/02 08:18:25;;;;;;;1.10;0.47;;;;;;;22.76;49.02;99188.16;4046505;29;20205;-86
2022/07/02 08:20:27;;;;;;;2.08;0.70;;;;;;;22.76;46.48;99194.53;4031450;29;20218;-86
2022/07/02 08:22:28;;;;;;;2.75;1.10;;;;;;;22.68;47.53;99194.44;4044523;29;20217;-85
2022/07/02 08:24:41;;;;;;;0.60;0.60;;;;;;;22.72;43.63;99187.13;4073102;28;20214;-85
2022/07/02 08:27:42;;;;;;;1.55;0.55;;;;;;;23.32;44.50;99185.72;4097602;28;20206;-87
2022/07/02 08:30:00;;;;;;;0.73;0.40;;;;;;;22.86;43.62;99176.75;4108601;28;20560;-86
2022/07/02 08:32:05;;;;;;;11.57;0.50;;;;;;;23.39;48.27;99183.31;4080917;28;20211;-85
2022/07/02 08:34:09;;;;;;;1.17;0.40;;;;;;;23.48;43.24;99189.78;4118455;28;20213;-86
2022/07/02 08:36:12;;;;;;;0.63;0.30;;;;;;;23.54;44.15;99188.53;4104179;28;20273;-88
2022/07/02 08:38:25;;;;;;;0.85;0.40;;;;;;;23.10;43.38;99177.31;4125529;28;20206;-86
2022/07/02 08:40:30;;;;;;;8.07;0.68;;;;;;;23.53;44.42;99192.47;4094734;28;20206;-87
2022/07/02 08:42:32;;;;;;;0.95;0.50;;;;;;;23.78;44.67;99185.09;4087878;28;20243;-87
2022/07/02 08:44:35;;;;;;;0.70;0.40;;;;;;;23.92;42.93;99188.66;4089229;28;20279;-86
2022/07/02 08:46:49;;;;;;;0.40;0.30;;;;;;;23.57;43.75;99194.31;4103868;28;20226;-86
2022/07/02 08:48:53;;;;;;;2.80;0.45;;;;;;;23.25;42.36;99186.16;4111083;28;20909;-86
2022/07/02 08:50:56;;;;;;;0.93;0.65;;;;;;;23.57;42.09;99174.75;4109404;28;20229;-86
2022/07/02 08:53:13;;;;;;;1.17;0.50;;;;;;;23.50;42.66;99165.16;4081438;28;20218;-87
2022/07/02 08:56:04;;;;;;;0.60;0.50;;;;;;;23.22;42.66;99163.63;4091067;28;20866;-86
2022/07/02 08:58:17;;;;;;;0.63;0.55;;;;;;;23.24;41.81;99155.78;4121328;28;20221;-86
2022/07/02 09:00:31;;;;;;;1.02;0.60;;;;;;;23.35;42.14;99157.16;4121878;28;20233;-86
2022/07/02 09:02:37;;;;;;;0.60;0.50;;;;;;;23.66;43.11;99158.03;4125283;28;20766;-86
2022/07/02 09:05:04;;;;;;;1.30;0.50;;;;;;;23.47;42.20;99154.63;4109778;28;20288;-87
2022/07/02 09:20:59;;;;;;;1.80;0.38;;;;;;;25.10;41.39;99133.38;4001528;29;20574;-86
2022/07/02 09:23:56;;;;;;;0.30;0.30;;;;;;;24.80;42.26;99126.75;4009030;29;20618;-87
2022/07/02 09:26:22;;;;;;;0.40;0.40;;;;;;;24.43;41.84;99135.72;4105420;23;20596;-55
2022/07/02 09:28:24;;;;;;;0.52;0.28;;;;;;;24.27;40.99;99128.91;4126482;28;20750;-55
2022/07/02 09:30:29;;;;;;;0.65;0.30;;;;;;;23.85;40.79;99131.50;4121247;28;20244;-55
2022/07/02 09:32:46;;;;;;;0.77;0.40;;;;;;;24.24;39.39;99126.78;4108135;28;20659;-55
2022/07/02 09:34:50;;;;;;;2.03;0.70;;;;;;;24.45;39.93;99132.59;4124921;28;20241;-55
2022/07/02 09:36:52;;;;;;;0.32;0.25;;;;;;;24.35;39.14;99132.91;4125754;28;20237;-56
2022/07/02 09:38:54;;;;;;;1.27;0.50;;;;;;;24.69;39.80;99128.25;4125259;28;20228;-55
2022/07/02 09:41:01;;;;;;;3.10;0.70;;;;;;;24.04;40.38;99132.09;4126799;28;20201;-55
2022/07/02 09:43:03;;;;;;;0.50;0.40;;;;;;;24.58;41.50;99140.88;4127148;28;20233;-55
2022/07/02 09:45:08;;;;;;;0.75;0.75;;;;;;;24.98;42.17;99131.22;4125941;28;20296;-57
2022/07/02 09:47:10;;;;;;;0.40;0.40;;;;;;;25.40;42.55;99136.00;4126688;28;20300;-55
2022/07/02 09:49:13;;;;;;;0.88;0.70;;;;;;;25.23;42.67;99126.81;4126581;28;20236;-55
2022/07/02 09:51:15;;;;;;;0.65;0.40;;;;;;;25.00;42.55;99122.50;4123563;28;20252;-54
2022/07/02 09:53:17;;;;;;;1.20;0.70;;;;;;;25.16;42.47;99129.25;4126742;28;20297;-55
2022/07/02 09:55:23;;;;;;;4.18;0.40;;;;;;;24.86;41.11;99122.66;4127830;28;20753;-56
2022/07/02 09:57:26;;;;;;;1.10;0.30;;;;;;;24.81;42.01;99125.59;4129709;28;20295;-55
2022/07/02 09:59:27;;;;;;;0.95;0.60;;;;;;;24.37;42.47;99125.00;4131102;28;20225;-55
2022/07/02 10:01:29;;;;;;;0.50;0.40;;;;;;;24.78;42.19;99126.25;4129227;28;20213;-55
2022/07/02 10:03:30;;;;;;;1.27;0.55;;;;;;;24.48;41.75;99135.59;4131726;28;20216;-56
2022/07/02 10:05:33;;;;;;;0.43;0.43;;;;;;;24.35;41.51;99130.94;4129429;28;20212;-56
2022/07/02 10:07:35;;;;;;;0.65;0.47;;;;;;;25.04;42.34;99129.91;4129399;28;20208;-56
2022/07/02 10:09:39;;;;;;;0.90;0.50;;;;;;;25.14;42.71;99128.75;4129439;28;20628;-56
2022/07/02 10:11:40;;;;;;;0.88;0.32;;;;;;;25.00;41.56;99125.31;4128886;28;20300;-55
2022/07/02 10:13:42;;;;;;;0.30;0.30;;;;;;;24.81;41.19;99125.59;4130333;28;20668;-55
2022/07/02 10:16:03;;;;;;;0.30;0.30;;;;;;;24.50;41.48;99124.03;4112306;28;20288;-56
2022/07/02 10:18:05;;;;;;;1.38;0.50;;;;;;;24.22;42.18;99129.06;4129256;28;20243;-54
2022/07/02 10:20:08;;;;;;;0.57;0.55;;;;;;;24.27;42.65;99120.50;4129106;28;20324;-56
2022/07/02 10:22:10;;;;;;;3.00;0.40;;;;;;;23.61;42.87;99121.81;4111114;28;20230;-56
2022/07/02 10:24:12;;;;;;;0.40;0.40;;;;;;;23.52;43.70;99119.00;4106913;28;20211;-56
2022/07/02 10:26:13;;;;;;;0.70;0.30;;;;;;;23.87;43.56;99114.44;4128612;28;20300;-56
2022/07/02 10:28:15;;;;;;;0.60;0.52;;;;;;;24.39;43.09;99123.53;4130051;28;20253;-56
2022/07/02 10:30:20;;;;;;;1.00;0.30;;;;;;;24.45;42.20;99113.81;4130409;28;20214;-56
2022/07/02 10:32:33;;;;;;;0.32;0.32;;;;;;;24.68;43.31;99112.59;4129555;28;20216;-56
2022/07/02 10:35:11;;;;;;;0.30;0.30;;;;;;;24.22;42.93;99112.28;4131471;28;20755;-55
2022/07/02 10:37:14;;;;;;;0.65;0.60;;;;;;;24.80;42.86;99118.34;4086874;28;20301;-56
2022/07/02 10:39:16;;;;;;;0.82;0.60;;;;;;;24.65;41.45;99121.63;4121891;28;20601;-56
2022/07/02 10:41:25;;;;;;;0.40;0.40;;;;;;;25.03;40.19;99111.47;4127955;28;20236;-56
2022/07/02 10:43:28;;;;;;;2.30;1.52;;;;;;;25.51;41.00;99103.69;4113289;28;20710;-55
2022/07/02 10:45:30;;;;;;;1.38;0.60;;;;;;;25.58;40.66;99100.38;4130236;28;20292;-55
2022/07/02 10:47:31;;;;;;;1.42;0.60;;;;;;;25.41;40.22;99095.63;4129021;28;20229;-55
2022/07/02 10:49:33;;;;;;;3.70;0.50;;;;;;;25.72;40.32;99089.78;4130175;28;20229;-56
2022/07/02 10:51:57;;;;;;;0.40;0.28;;;;;;;25.69;40.36;99096.88;4119107;28;20206;-56